createdAt,value
2022-08-16T00:01:21.517Z,21.65
2022-08-16T00:03:51.386Z,21.63
2022-08-16T00:06:29.304Z,21.57
2022-08-16T00:08:55.747Z,21.59
2022-08-16T00:11:22.542Z,21.56
2022-08-16T00:13:54.040Z,21.56
2022-08-16T00:17:01.027Z,21.58
2022-08-16T00:19:23.132Z,21.61
2022-08-16T00:21:53.327Z,21.62
2022-08-16T00:24:32.263Z,21.65
2022-08-16T00:27:01.052Z,21.63
2022-08-16T00:29:29.589Z,21.65
2022-08-16T00:32:05.295Z,21.61
2022-08-16T00:34:43.446Z,21.58
2022-08-16T00:37:17.287Z,21.45
2022-08-16T00:39:57.217Z,21.36
2022-08-16T00:42:30.605Z,21.32
2022-08-16T00:45:09.695Z,21.23
2022-08-16T00:47:49.312Z,21.23
2022-08-16T00:50:36.235Z,21.24
2022-08-16T00:53:05.070Z,21.24
2022-08-16T00:55:37.774Z,21.18
2022-08-16T00:58:13.027Z,21.04
2022-08-16T01:00:53.933Z,21.03
2022-08-16T01:03:30.003Z,21.08
2022-08-16T01:05:59.267Z,21.12
2022-08-16T01:08:36.120Z,21.08
2022-08-16T01:11:05.260Z,21.01
2022-08-16T01:13:35.479Z,21.01
2022-08-16T01:16:19.976Z,20.95
2022-08-16T01:19:07.703Z,20.88
2022-08-16T01:22:49.928Z,20.76
2022-08-16T01:25:06.110Z,20.76
2022-08-16T01:27:39.056Z,20.81
2022-08-16T01:30:19.578Z,20.83
2022-08-16T01:32:59.599Z,20.84
2022-08-16T01:35:53.394Z,20.71
2022-08-16T01:38:25.556Z,20.60
2022-08-16T01:40:57.083Z,20.60
2022-08-16T01:43:25.153Z,20.60
2022-08-16T01:45:58.369Z,20.51
2022-08-16T01:48:28.729Z,20.51
2022-08-16T01:51:09.451Z,20.51
2022-08-16T01:53:43.445Z,20.45
2022-08-16T01:56:32.147Z,20.52
2022-08-16T01:59:01.874Z,20.47
2022-08-16T02:01:31.949Z,20.41
2022-08-16T02:04:10.283Z,20.41
2022-08-16T02:06:46.004Z,20.37
2022-08-16T02:09:22.770Z,20.38
2022-08-16T02:11:56.378Z,20.34
2022-08-16T02:14:27.408Z,20.33
2022-08-16T02:16:58.055Z,20.24
2022-08-16T02:19:59.758Z,20.20
2022-08-16T02:22:33.735Z,20.16
2022-08-16T02:25:11.899Z,20.17
2022-08-16T02:27:43.059Z,20.16
2022-08-16T02:30:36.520Z,20.16
2022-08-16T02:33:04.342Z,20.13
2022-08-16T02:35:32.696Z,20.16
2022-08-16T02:38:08.694Z,20.15
2022-08-16T02:40:36.480Z,20.27
2022-08-16T02:43:04.529Z,20.19
2022-08-16T02:45:32.293Z,20.18
2022-08-16T02:48:01.818Z,20.18
2022-08-16T02:50:53.545Z,20.14
2022-08-16T02:53:29.865Z,20.21
2022-08-16T02:55:57.293Z,20.23
2022-08-16T02:58:25.204Z,20.23
2022-08-16T03:00:55.979Z,20.18
2022-08-16T03:03:24.927Z,20.09
2022-08-16T03:05:53.226Z,20.08
2022-08-16T03:08:51.316Z,20.13
2022-08-16T03:11:16.434Z,20.10
2022-08-16T03:13:56.526Z,20.06
2022-08-16T03:16:37.661Z,20.09
2022-08-16T03:19:08.267Z,20.03
2022-08-16T03:21:38.299Z,19.94
2022-08-16T03:24:29.060Z,19.93
2022-08-16T03:26:58.912Z,19.92
2022-08-16T03:29:30.035Z,19.94
2022-08-16T03:31:59.666Z,19.96
2022-08-16T03:34:29.787Z,19.94
2022-08-16T03:36:56.772Z,19.93
2022-08-16T03:39:23.802Z,19.89
2022-08-16T03:41:59.261Z,19.84
2022-08-16T03:44:43.894Z,19.79
2022-08-16T03:47:18.932Z,19.73
2022-08-16T03:49:51.282Z,19.68
2022-08-16T03:52:23.431Z,19.60
2022-08-16T03:54:58.219Z,19.58
2022-08-16T03:57:32.053Z,19.59
2022-08-16T04:00:20.648Z,19.57
2022-08-16T04:03:09.456Z,19.53
2022-08-16T04:05:46.939Z,19.38
2022-08-16T04:08:23.954Z,19.49
2022-08-16T04:10:58.213Z,19.51
2022-08-16T04:13:59.062Z,19.51
2022-08-16T04:16:26.782Z,19.52
2022-08-16T04:19:01.411Z,19.52
2022-08-16T04:21:32.668Z,19.54
2022-08-16T04:24:00.814Z,19.57
2022-08-16T04:26:30.809Z,19.62
2022-08-16T04:29:17.115Z,19.66
2022-08-16T04:31:56.385Z,19.72
2022-08-16T04:34:30.015Z,19.84
2022-08-16T04:37:01.453Z,19.91
2022-08-16T04:39:45.678Z,19.95
2022-08-16T04:42:26.220Z,19.98
2022-08-16T04:44:58.366Z,20.00
2022-08-16T04:47:35.518Z,20.06
2022-08-16T04:50:09.782Z,20.05
2022-08-16T04:52:38.144Z,20.03
2022-08-16T04:55:09.000Z,20.01
2022-08-16T04:57:38.036Z,19.99
2022-08-16T05:00:31.750Z,20.02
2022-08-16T05:03:07.443Z,20.06
2022-08-16T05:05:45.335Z,20.12
2022-08-16T05:08:28.985Z,20.20
2022-08-16T05:11:15.803Z,20.26
2022-08-16T05:13:47.818Z,20.27
2022-08-16T05:16:25.620Z,20.27
2022-08-16T05:18:59.524Z,20.16
2022-08-16T05:21:38.195Z,20.17
2022-08-16T05:24:08.953Z,20.24
2022-08-16T05:26:40.720Z,20.32
2022-08-16T05:29:07.567Z,20.38
2022-08-16T05:31:44.288Z,20.43
2022-08-16T05:34:20.157Z,20.43
2022-08-16T05:36:51.354Z,20.44
2022-08-16T05:39:20.577Z,20.60
2022-08-16T05:41:49.013Z,20.69
2022-08-16T05:44:23.982Z,20.81
2022-08-16T05:46:57.277Z,20.92
2022-08-16T05:49:38.332Z,21.01
2022-08-16T05:52:11.392Z,21.10
2022-08-16T05:54:47.083Z,21.08
2022-08-16T05:57:20.678Z,21.07
2022-08-16T05:59:59.751Z,21.17
2022-08-16T06:02:39.209Z,21.33
2022-08-16T06:05:14.676Z,21.37
2022-08-16T06:07:43.934Z,21.38
2022-08-16T06:10:32.976Z,21.36
2022-08-16T06:13:02.457Z,21.33
2022-08-16T06:15:30.711Z,21.50
2022-08-16T06:17:59.271Z,21.36
2022-08-16T06:20:35.309Z,21.38
2022-08-16T06:23:16.920Z,21.42
2022-08-16T06:26:08.440Z,21.59
2022-08-16T06:28:42.996Z,21.54
2022-08-16T06:31:16.947Z,21.76
2022-08-16T06:33:51.692Z,21.96
2022-08-16T06:36:21.761Z,21.98
2022-08-16T06:39:08.822Z,22.19
2022-08-16T06:41:57.553Z,22.38
2022-08-16T06:44:42.772Z,22.56
2022-08-16T06:47:53.412Z,22.74
2022-08-16T06:50:28.746Z,22.89
2022-08-16T06:53:00.582Z,22.96
2022-08-16T06:55:34.142Z,23.00
2022-08-16T06:58:08.354Z,23.17
2022-08-16T07:00:37.792Z,23.08
2022-08-16T07:03:28.006Z,23.10
2022-08-16T07:05:57.023Z,23.13
2022-08-16T07:08:28.939Z,23.18
2022-08-16T07:10:56.814Z,23.18
2022-08-16T07:14:00.287Z,23.41
2022-08-16T07:16:16.683Z,23.60
2022-08-16T07:18:58.900Z,23.61
2022-08-16T07:21:26.856Z,23.74
2022-08-16T07:23:58.052Z,23.79
2022-08-16T07:26:34.105Z,23.83
2022-08-16T07:29:02.677Z,23.77
2022-08-16T07:31:37.864Z,23.76
2022-08-16T07:34:10.200Z,23.71
2022-08-16T07:36:38.472Z,23.76
2022-08-16T07:39:06.254Z,23.80
2022-08-16T07:41:36.178Z,23.93
2022-08-16T07:44:16.365Z,23.97
2022-08-16T07:46:45.040Z,24.10
2022-08-16T07:49:19.011Z,24.18
2022-08-16T07:51:46.786Z,24.29
2022-08-16T07:54:21.222Z,24.44
2022-08-16T07:56:59.186Z,24.30
2022-08-16T07:59:26.080Z,24.33
2022-08-16T08:02:12.248Z,24.53
2022-08-16T08:04:41.088Z,24.55
2022-08-16T08:07:08.959Z,24.57
2022-08-16T08:09:36.332Z,24.74
2022-08-16T08:12:31.915Z,24.85
2022-08-16T08:14:58.155Z,25.10
2022-08-16T08:17:25.303Z,25.17
2022-08-16T08:20:20.795Z,24.93
2022-08-16T08:23:01.148Z,25.00
2022-08-16T08:25:54.324Z,25.11
2022-08-16T08:28:23.184Z,25.21
2022-08-16T08:31:01.486Z,25.31
2022-08-16T08:33:32.464Z,25.38
2022-08-16T08:36:05.140Z,25.23
2022-08-16T08:38:45.883Z,25.51
2022-08-16T08:41:19.730Z,25.61
2022-08-16T08:43:54.930Z,25.74
2022-08-16T08:46:23.502Z,25.99
2022-08-16T08:48:59.157Z,25.97
2022-08-16T08:51:35.825Z,25.90
2022-08-16T08:54:06.529Z,26.00
2022-08-16T08:56:37.256Z,26.26
2022-08-16T08:59:16.463Z,26.28
2022-08-16T09:01:56.480Z,26.15
2022-08-16T09:04:25.283Z,26.25
2022-08-16T09:06:53.888Z,26.33
2022-08-16T09:09:22.706Z,26.37
2022-08-16T09:12:04.178Z,26.34
2022-08-16T09:14:49.398Z,26.74
2022-08-16T09:17:38.261Z,27.03
2022-08-16T09:20:08.279Z,27.05
2022-08-16T09:22:35.221Z,27.27
2022-08-16T09:25:12.609Z,27.44
2022-08-16T09:27:56.528Z,27.56
2022-08-16T09:30:34.632Z,27.57
2022-08-16T09:33:24.252Z,27.54
2022-08-16T09:35:52.912Z,27.69
2022-08-16T09:38:31.472Z,27.82
2022-08-16T09:41:00.784Z,27.73
2022-08-16T09:44:00.619Z,27.77
2022-08-16T09:46:45.352Z,27.98
2022-08-16T09:49:04.405Z,27.87
2022-08-16T09:51:36.821Z,28.08
2022-08-16T09:54:05.709Z,28.28
2022-08-16T09:56:34.886Z,28.06
2022-08-16T09:59:07.272Z,28.39
2022-08-16T10:01:36.615Z,28.34
2022-08-16T10:04:06.996Z,28.57
2022-08-16T10:06:52.724Z,28.57
2022-08-16T10:09:20.247Z,28.80
2022-08-16T10:12:11.770Z,29.08
2022-08-16T10:14:46.787Z,29.11
2022-08-16T10:17:14.661Z,29.00
2022-08-16T10:19:41.431Z,29.09
2022-08-16T10:22:12.690Z,29.50
2022-08-16T10:24:40.435Z,29.75
2022-08-16T10:27:27.295Z,29.78
2022-08-16T10:30:25.840Z,29.99
2022-08-16T10:32:55.183Z,30.15
2022-08-16T10:35:22.030Z,30.21
2022-08-16T10:37:52.206Z,29.59
2022-08-16T10:40:30.140Z,29.05
2022-08-16T10:43:02.063Z,28.26
2022-08-16T10:45:36.667Z,28.04
2022-08-16T10:48:27.713Z,27.78
2022-08-16T10:50:53.854Z,28.23
2022-08-16T10:53:22.274Z,28.52
2022-08-16T10:55:48.875Z,28.52
2022-08-16T10:58:33.958Z,29.26
2022-08-16T11:01:24.929Z,29.84
2022-08-16T11:03:49.071Z,30.10
2022-08-16T11:06:26.861Z,30.22
2022-08-16T11:14:33.815Z,30.62
2022-08-16T11:17:11.052Z,30.63
2022-08-16T11:22:47.079Z,31.02
2022-08-16T11:28:09.586Z,31.24
2022-08-16T11:30:39.342Z,31.15
2022-08-16T11:33:07.452Z,31.35
2022-08-16T11:38:47.665Z,30.97
2022-08-16T11:41:09.849Z,30.41
2022-08-16T11:43:38.333Z,29.94
2022-08-16T11:46:42.922Z,29.35
2022-08-16T11:48:55.590Z,29.08
2022-08-16T11:51:22.549Z,28.80
2022-08-16T11:53:49.434Z,28.98
2022-08-16T11:56:16.350Z,29.33
2022-08-16T11:58:56.958Z,29.46
2022-08-16T12:01:29.894Z,29.62
2022-08-16T12:04:13.350Z,30.14
2022-08-16T12:06:40.099Z,30.50
2022-08-16T12:09:07.939Z,30.52
2022-08-16T12:11:36.694Z,30.47
2022-08-16T12:14:05.482Z,30.69
2022-08-16T12:16:34.136Z,30.81
2022-08-16T12:19:05.423Z,30.53
2022-08-16T12:21:35.967Z,30.19
2022-08-16T12:24:20.378Z,29.87
2022-08-16T12:26:47.268Z,29.37
2022-08-16T12:29:16.954Z,29.34
2022-08-16T12:32:00.669Z,29.45
2022-08-16T12:34:30.234Z,29.18
2022-08-16T12:36:56.893Z,29.02
2022-08-16T12:39:24.001Z,29.34
2022-08-16T12:41:57.628Z,29.97
2022-08-16T12:44:26.345Z,30.58
2022-08-16T12:47:18.310Z,30.57
2022-08-16T12:49:45.302Z,30.36
2022-08-16T12:52:33.056Z,30.52
2022-08-16T12:55:00.225Z,30.16
2022-08-16T12:57:36.825Z,29.96
2022-08-16T13:00:28.708Z,30.27
2022-08-16T13:03:03.933Z,30.82
2022-08-16T13:05:42.880Z,31.30
2022-08-16T13:08:21.292Z,31.49
2022-08-16T13:10:51.729Z,31.38
2022-08-16T13:13:25.510Z,31.49
2022-08-16T13:16:00.863Z,31.62
2022-08-16T13:18:34.461Z,31.66
2022-08-16T13:21:05.092Z,31.87
2022-08-16T13:23:32.304Z,32.24
2022-08-16T13:25:59.466Z,32.39
2022-08-16T13:28:26.355Z,31.99
2022-08-16T13:30:56.146Z,31.57
2022-08-16T13:33:29.753Z,30.82
2022-08-16T13:35:59.274Z,30.61
2022-08-16T13:38:35.181Z,30.59
2022-08-16T13:41:05.790Z,30.90
2022-08-16T13:43:35.923Z,31.16
2022-08-16T13:46:04.767Z,31.25
2022-08-16T13:48:43.230Z,31.27
2022-08-16T13:51:16.662Z,31.10
2022-08-16T13:53:59.935Z,31.58
2022-08-16T13:56:37.906Z,31.67
2022-08-16T13:59:19.942Z,31.62
2022-08-16T14:01:55.475Z,32.00
2022-08-16T14:04:26.809Z,31.95
2022-08-16T14:06:57.951Z,31.91
2022-08-16T14:09:27.100Z,31.76
2022-08-16T14:11:54.369Z,31.75
2022-08-16T14:14:28.494Z,31.89
2022-08-16T14:16:58.212Z,31.80
2022-08-16T14:19:26.410Z,31.82
2022-08-16T14:22:13.571Z,31.85
2022-08-16T14:24:46.720Z,31.95
2022-08-16T14:27:15.476Z,31.89
2022-08-16T14:29:42.447Z,32.01
2022-08-16T14:32:13.137Z,31.89
2022-08-16T14:34:52.605Z,31.74
2022-08-16T14:37:22.811Z,31.70
2022-08-16T14:39:49.812Z,31.80
2022-08-16T14:42:24.368Z,31.55
2022-08-16T14:45:00.483Z,31.69
2022-08-16T14:47:34.174Z,31.48
2022-08-16T14:50:01.834Z,31.44
2022-08-16T14:52:53.942Z,31.52
2022-08-16T14:55:17.150Z,31.46
2022-08-16T14:57:43.633Z,31.60
2022-08-16T15:00:13.434Z,31.62
2022-08-16T15:02:42.406Z,31.70
2022-08-16T15:05:11.645Z,31.70
2022-08-16T15:07:40.276Z,31.75
2022-08-16T15:10:08.399Z,31.85
2022-08-16T15:12:49.592Z,31.63
2022-08-16T15:15:20.437Z,31.73
2022-08-16T15:17:53.893Z,31.74
2022-08-16T15:20:22.930Z,31.52
2022-08-16T15:22:53.936Z,31.38
2022-08-16T15:25:34.006Z,31.31
2022-08-16T15:28:04.652Z,31.32
2022-08-16T15:30:57.524Z,31.40
2022-08-16T15:33:24.575Z,31.49
2022-08-16T15:35:55.202Z,31.21
2022-08-16T15:38:56.901Z,31.20
2022-08-16T15:41:09.587Z,31.13
2022-08-16T15:43:40.457Z,31.28
2022-08-16T15:46:34.973Z,31.21
2022-08-16T15:49:11.354Z,31.30
2022-08-16T15:51:39.413Z,31.36
2022-08-16T15:54:29.008Z,31.35
2022-08-16T15:56:55.048Z,31.46
2022-08-16T15:59:24.238Z,31.46
2022-08-16T16:01:57.089Z,31.36
2022-08-16T16:04:28.452Z,31.26
2022-08-16T16:06:56.605Z,31.17
2022-08-16T16:09:36.539Z,31.15
2022-08-16T16:12:27.470Z,31.21
2022-08-16T16:14:52.852Z,30.95
2022-08-16T16:17:19.316Z,30.42
2022-08-16T16:19:49.706Z,30.18
2022-08-16T16:22:21.358Z,29.85
2022-08-16T16:24:49.189Z,29.72
2022-08-16T16:27:21.778Z,29.69
2022-08-16T16:29:50.858Z,29.56
2022-08-16T16:32:34.082Z,29.38
2022-08-16T16:35:02.405Z,29.31
2022-08-16T16:37:31.020Z,29.28
2022-08-16T16:39:58.215Z,29.36
2022-08-16T16:42:29.531Z,29.49
2022-08-16T16:45:01.597Z,29.67
2022-08-16T16:47:30.024Z,29.80
2022-08-16T16:50:09.145Z,29.79
2022-08-16T16:52:43.856Z,29.88
2022-08-16T16:55:15.185Z,29.89
2022-08-16T16:58:03.311Z,29.89
2022-08-16T17:00:37.559Z,29.89
2022-08-16T17:03:06.338Z,29.93
2022-08-16T17:05:43.699Z,29.96
2022-08-16T17:08:23.970Z,29.94
2022-08-16T17:10:52.486Z,29.80
2022-08-16T17:13:20.966Z,29.72
2022-08-16T17:15:54.233Z,29.64
2022-08-16T17:19:16.627Z,29.59
2022-08-16T17:21:09.283Z,29.50
2022-08-16T17:23:58.954Z,29.33
2022-08-16T17:26:29.804Z,29.16
2022-08-16T17:29:02.311Z,28.96
2022-08-16T17:31:40.873Z,28.87
2022-08-16T17:34:29.415Z,28.71
2022-08-16T17:36:59.404Z,28.57
2022-08-16T17:39:29.586Z,28.42
2022-08-16T17:42:13.286Z,28.33
2022-08-16T17:44:39.856Z,28.26
2022-08-16T17:47:06.355Z,28.21
2022-08-16T17:49:32.798Z,28.17
2022-08-16T17:51:59.379Z,28.12
2022-08-16T17:54:30.722Z,27.99
2022-08-16T17:57:00.847Z,27.90
2022-08-16T17:59:28.145Z,27.83
2022-08-16T18:01:55.686Z,27.75
2022-08-16T18:04:49.464Z,27.77
2022-08-16T18:07:10.295Z,27.62
2022-08-16T18:09:36.976Z,27.58
2022-08-16T18:12:44.854Z,27.50
2022-08-16T18:15:13.323Z,27.42
2022-08-16T18:17:40.229Z,27.33
2022-08-16T18:20:28.886Z,27.22
2022-08-16T18:23:03.526Z,27.14
2022-08-16T18:25:30.224Z,27.04
2022-08-16T18:27:56.669Z,27.02
2022-08-16T18:30:23.122Z,26.93
2022-08-16T18:32:50.417Z,26.83
2022-08-16T18:35:18.813Z,26.72
2022-08-16T18:37:45.959Z,26.62
2022-08-16T18:40:14.961Z,26.51
2022-08-16T18:42:52.888Z,26.46
2022-08-16T18:45:19.320Z,26.41
2022-08-16T18:47:46.204Z,26.33
2022-08-16T18:50:12.970Z,26.23
2022-08-16T18:52:50.776Z,26.13
2022-08-16T18:55:17.446Z,26.11
2022-08-16T18:57:44.874Z,25.99
2022-08-16T19:00:14.894Z,25.92
2022-08-16T19:02:58.827Z,25.81
2022-08-16T19:05:27.310Z,25.70
2022-08-16T19:07:53.776Z,25.65
2022-08-16T19:10:20.686Z,25.58
2022-08-16T19:12:47.733Z,25.55
2022-08-16T19:15:21.825Z,25.50
2022-08-16T19:17:48.572Z,25.49
2022-08-16T19:20:18.281Z,25.44
2022-08-16T19:23:05.823Z,25.37
2022-08-16T19:25:47.883Z,25.26
2022-08-16T19:28:49.099Z,25.25
2022-08-16T19:31:25.937Z,25.24
2022-08-16T19:33:56.255Z,25.23
2022-08-16T19:36:31.980Z,25.13
2022-08-16T19:39:05.182Z,25.10
2022-08-16T19:41:43.791Z,25.01
2022-08-16T19:44:10.867Z,24.92
2022-08-16T19:46:38.317Z,24.82
2022-08-16T19:49:05.538Z,24.73
2022-08-16T19:51:32.411Z,24.67
2022-08-16T19:53:58.894Z,24.63
2022-08-16T19:56:26.555Z,24.68
2022-08-16T19:59:18.174Z,24.61
2022-08-16T20:01:42.509Z,24.54
2022-08-16T20:04:13.135Z,24.42
2022-08-16T20:06:41.175Z,24.35
2022-08-16T20:09:07.627Z,24.27
2022-08-16T20:11:35.367Z,24.21
2022-08-16T20:14:02.902Z,24.12
2022-08-16T20:16:29.650Z,24.04
2022-08-16T20:18:56.122Z,23.98
2022-08-16T20:21:22.823Z,23.98
2022-08-16T20:23:49.315Z,23.94
2022-08-16T20:26:16.303Z,23.88
2022-08-16T20:28:52.402Z,23.85
2022-08-16T20:31:24.741Z,23.80
2022-08-16T20:33:51.978Z,23.79
2022-08-16T20:36:19.344Z,23.75
2022-08-16T20:38:47.988Z,23.70
2022-08-16T20:41:16.453Z,23.68
2022-08-16T20:43:43.507Z,23.67
2022-08-16T20:46:12.466Z,23.66
2022-08-16T20:48:38.885Z,23.61
2022-08-16T20:51:06.784Z,23.58
2022-08-16T20:53:33.947Z,23.55
2022-08-16T20:56:00.544Z,23.57
2022-08-16T20:58:27.179Z,23.62
2022-08-16T21:00:53.700Z,23.62
2022-08-16T21:03:20.534Z,23.64
2022-08-16T21:05:47.515Z,23.60
2022-08-16T21:08:49.977Z,23.55
2022-08-16T21:11:08.671Z,23.53
2022-08-16T21:13:39.261Z,23.54
2022-08-16T21:16:08.775Z,23.50
2022-08-16T21:18:35.230Z,23.40
2022-08-16T21:21:01.705Z,23.33
2022-08-16T21:23:28.212Z,23.22
2022-08-16T21:25:58.994Z,23.18
2022-08-16T21:28:41.133Z,23.16
2022-08-16T21:31:15.063Z,23.22
2022-08-16T21:33:43.091Z,23.21
2022-08-16T21:36:11.089Z,23.18
2022-08-16T21:38:38.920Z,23.15
2022-08-16T21:41:07.171Z,23.12
2022-08-16T21:43:34.621Z,23.08
2022-08-16T21:46:01.947Z,23.02
2022-08-16T21:48:34.735Z,22.94
2022-08-16T21:51:15.089Z,22.90
2022-08-16T21:53:43.712Z,22.87
2022-08-16T21:56:16.650Z,22.81
2022-08-16T21:58:45.535Z,22.72
2022-08-16T22:01:12.416Z,22.62
2022-08-16T22:03:39.236Z,22.50
2022-08-16T22:06:12.053Z,22.44
2022-08-16T22:08:50.227Z,22.35
2022-08-16T22:11:22.138Z,22.30
2022-08-16T22:13:57.341Z,22.28
2022-08-16T22:16:28.049Z,22.24
2022-08-16T22:18:54.787Z,22.23
2022-08-16T22:21:21.857Z,22.15
2022-08-16T22:23:55.211Z,22.11
2022-08-16T22:26:31.696Z,22.07
2022-08-16T22:29:04.735Z,21.97
2022-08-16T22:31:32.193Z,21.92
2022-08-16T22:33:59.280Z,21.86
2022-08-16T22:36:28.131Z,21.87
2022-08-16T22:39:00.516Z,21.80
2022-08-16T22:41:28.610Z,21.74
2022-08-16T22:43:55.941Z,21.74
2022-08-16T22:46:23.205Z,21.74
2022-08-16T22:48:50.840Z,21.72
2022-08-16T22:51:20.486Z,21.64
2022-08-16T22:53:47.716Z,21.57
2022-08-16T22:56:16.888Z,21.62
2022-08-16T22:58:43.940Z,21.65
2022-08-16T23:01:13.057Z,21.63
2022-08-16T23:03:39.710Z,21.65
2022-08-16T23:06:07.434Z,21.67
2022-08-16T23:08:39.135Z,21.62
2022-08-16T23:11:08.919Z,21.62
2022-08-16T23:13:35.431Z,21.62
2022-08-16T23:16:11.268Z,21.57
2022-08-16T23:18:39.946Z,21.52
2022-08-16T23:21:10.130Z,21.47
2022-08-16T23:23:37.745Z,21.37
2022-08-16T23:26:46.192Z,21.24
2022-08-16T23:28:51.902Z,21.13
2022-08-16T23:31:19.369Z,21.02
2022-08-16T23:33:46.340Z,20.88
2022-08-16T23:36:13.655Z,20.84
2022-08-16T23:38:40.270Z,20.72
2022-08-16T23:41:11.428Z,20.74
2022-08-16T23:43:43.451Z,20.67
2022-08-16T23:46:16.984Z,20.59
2022-08-16T23:49:56.846Z,20.58
2022-08-16T23:51:31.253Z,20.60
2022-08-16T23:53:57.789Z,20.62
2022-08-16T23:56:25.559Z,20.70
2022-08-16T23:59:01.833Z,20.77
